sensor_id;sensor_type;location;lat;lon;timestamp;temperature;humidity
5711;DHT22;61291;52.524;13.422;2023-02-08T00:00:30;-2.30;99.90
5711;DHT22;61291;52.524;13.422;2023-02-08T00:02:56;-2.30;99.90
5711;DHT22;61291;52.524;13.422;2023-02-08T00:05:21;-2.40;99.90
5711;DHT22;61291;52.524;13.422;2023-02-08T00:07:46;-2.50;99.90
5711;DHT22;61291;52.524;13.422;2023-02-08T00:10:12;-2.50;99.90
5711;DHT22;61291;52.524;13.422;2023-02-08T00:12:38;-2.60;99.90
5711;DHT22;61291;52.524;13.422;2023-02-08T00:15:04;-2.50;99.90
5711;DHT22;61291;52.524;13.422;2023-02-08T00:17:29;-2.50;99.90
5711;DHT22;61291;52.524;13.422;2023-02-08T00:19:55;-2.50;99.90
5711;DHT22;61291;52.524;13.422;2023-02-08T00:22:21;-2.50;99.90
5711;DHT22;61291;52.524;13.422;2023-02-08T00:24:46;-2.50;99.90
5711;DHT22;61291;52.524;13.422;2023-02-08T00:27:11;-2.50;99.90
5711;DHT22;61291;52.524;13.422;2023-02-08T00:29:37;-2.50;99.90
5711;DHT22;61291;52.524;13.422;2023-02-08T00:32:03;-2.50;99.90
5711;DHT22;61291;52.524;13.422;2023-02-08T00:34:28;-2.60;99.90
5711;DHT22;61291;52.524;13.422;2023-02-08T00:36:54;-2.70;99.90
5711;DHT22;61291;52.524;13.422;2023-02-08T00:39:19;-2.70;99.90
5711;DHT22;61291;52.524;13.422;2023-02-08T00:41:45;-2.70;99.90
5711;DHT22;61291;52.524;13.422;2023-02-08T00:44:11;-2.70;99.90
5711;DHT22;61291;52.524;13.422;2023-02-08T00:46:36;-2.70;99.90
5711;DHT22;61291;52.524;13.422;2023-02-08T00:49:02;-2.70;99.90
5711;DHT22;61291;52.524;13.422;2023-02-08T00:51:28;-2.70;99.90
5711;DHT22;61291;52.524;13.422;2023-02-08T00:53:54;-2.70;99.90
5711;DHT22;61291;52.524;13.422;2023-02-08T00:56:19;-2.70;99.90
5711;DHT22;61291;52.524;13.422;2023-02-08T00:58:45;-2.70;99.90
5711;DHT22;61291;52.524;13.422;2023-02-08T01:01:11;-2.70;99.90
5711;DHT22;61291;52.524;13.422;2023-02-08T01:03:38;-2.70;99.90
5711;DHT22;61291;52.524;13.422;2023-02-08T01:06:08;-2.70;99.90
5711;DHT22;61291;52.524;13.422;2023-02-08T01:08:34;-2.60;99.90
5711;DHT22;61291;52.524;13.422;2023-02-08T01:11:05;-2.60;99.90
5711;DHT22;61291;52.524;13.422;2023-02-08T01:13:31;-2.60;99.90
5711;DHT22;61291;52.524;13.422;2023-02-08T01:16:05;-2.60;99.90
5711;DHT22;61291;52.524;13.422;2023-02-08T01:18:31;-2.60;99.90
5711;DHT22;61291;52.524;13.422;2023-02-08T01:21:03;-2.60;99.90
5711;DHT22;61291;52.524;13.422;2023-02-08T01:23:28;-2.70;99.90
5711;DHT22;61291;52.524;13.422;2023-02-08T01:25:54;-2.70;99.90
5711;DHT22;61291;52.524;13.422;2023-02-08T01:28:19;-2.80;99.90
5711;DHT22;61291;52.524;13.422;2023-02-08T01:30:45;-2.80;99.90
5711;DHT22;61291;52.524;13.422;2023-02-08T01:33:10;-2.80;99.90
5711;DHT22;61291;52.524;13.422;2023-02-08T01:35:35;-2.80;99.90
5711;DHT22;61291;52.524;13.422;2023-02-08T01:38:01;-2.80;99.90
5711;DHT22;61291;52.524;13.422;2023-02-08T01:40:26;-2.80;99.90
5711;DHT22;61291;52.524;13.422;2023-02-08T01:42:52;-2.90;99.90
5711;DHT22;61291;52.524;13.422;2023-02-08T01:45:20;-2.90;99.90
5711;DHT22;61291;52.524;13.422;2023-02-08T01:48:01;-2.90;99.90
5711;DHT22;61291;52.524;13.422;2023-02-08T01:50:31;-2.90;99.90
5711;DHT22;61291;52.524;13.422;2023-02-08T01:52:58;-2.90;99.90
5711;DHT22;61291;52.524;13.422;2023-02-08T01:55:30;-2.90;99.90
5711;DHT22;61291;52.524;13.422;2023-02-08T01:57:58;-2.90;99.90
5711;DHT22;61291;52.524;13.422;2023-02-08T02:00:26;-2.90;99.90
5711;DHT22;61291;52.524;13.422;2023-02-08T02:02:54;-2.80;99.90
5711;DHT22;61291;52.524;13.422;2023-02-08T02:05:22;-2.80;99.90
5711;DHT22;61291;52.524;13.422;2023-02-08T02:07:50;-2.80;99.90
5711;DHT22;61291;52.524;13.422;2023-02-08T02:10:34;-2.80;99.90
5711;DHT22;61291;52.524;13.422;2023-02-08T02:13:06;-2.80;99.90
5711;DHT22;61291;52.524;13.422;2023-02-08T02:15:33;-2.80;99.90
5711;DHT22;61291;52.524;13.422;2023-02-08T02:18:00;-2.80;99.90
5711;DHT22;61291;52.524;13.422;2023-02-08T02:20:59;-2.90;99.90
5711;DHT22;61291;52.524;13.422;2023-02-08T02:26:18;-3.00;99.90
5711;DHT22;61291;52.524;13.422;2023-02-08T02:28:56;-3.00;99.90
5711;DHT22;61291;52.524;13.422;2023-02-08T02:34:08;-3.10;99.90
5711;DHT22;61291;52.524;13.422;2023-02-08T02:37:01;-3.10;99.90
5711;DHT22;61291;52.524;13.422;2023-02-08T02:45:39;-3.10;99.90
5711;DHT22;61291;52.524;13.422;2023-02-08T02:48:19;-3.20;99.90
5711;DHT22;61291;52.524;13.422;2023-02-08T02:50:50;-3.20;99.90
5711;DHT22;61291;52.524;13.422;2023-02-08T02:53:39;-3.20;99.90
5711;DHT22;61291;52.524;13.422;2023-02-08T02:56:20;-3.20;99.90
5711;DHT22;61291;52.524;13.422;2023-02-08T02:58:46;-3.20;99.90
5711;DHT22;61291;52.524;13.422;2023-02-08T03:01:12;-3.20;99.90
5711;DHT22;61291;52.524;13.422;2023-02-08T03:03:39;-3.20;99.90
5711;DHT22;61291;52.524;13.422;2023-02-08T03:06:11;-3.20;99.90
5711;DHT22;61291;52.524;13.422;2023-02-08T03:09:13;-3.30;99.90
5711;DHT22;61291;52.524;13.422;2023-02-08T03:11:50;-3.20;99.90
5711;DHT22;61291;52.524;13.422;2023-02-08T03:14:38;-3.20;99.90
5711;DHT22;61291;52.524;13.422;2023-02-08T03:17:26;-3.10;99.90
5711;DHT22;61291;52.524;13.422;2023-02-08T03:20:17;-3.10;99.90
5711;DHT22;61291;52.524;13.422;2023-02-08T03:22:44;-3.00;99.90
5711;DHT22;61291;52.524;13.422;2023-02-08T03:25:26;-3.00;99.90
5711;DHT22;61291;52.524;13.422;2023-02-08T03:28:07;-3.00;99.90
5711;DHT22;61291;52.524;13.422;2023-02-08T03:30:48;-3.00;99.90
5711;DHT22;61291;52.524;13.422;2023-02-08T03:33:22;-3.00;99.90
5711;DHT22;61291;52.524;13.422;2023-02-08T03:38:53;-3.20;99.90
5711;DHT22;61291;52.524;13.422;2023-02-08T03:41:25;-3.30;99.90
5711;DHT22;61291;52.524;13.422;2023-02-08T03:44:21;-3.30;99.90
5711;DHT22;61291;52.524;13.422;2023-02-08T03:47:14;-3.40;99.90
5711;DHT22;61291;52.524;13.422;2023-02-08T03:49:41;-3.40;99.90
5711;DHT22;61291;52.524;13.422;2023-02-08T03:52:08;-3.40;99.90
5711;DHT22;61291;52.524;13.422;2023-02-08T03:54:41;-3.50;99.90
5711;DHT22;61291;52.524;13.422;2023-02-08T03:57:16;-3.50;99.90
5711;DHT22;61291;52.524;13.422;2023-02-08T03:59:47;-3.50;99.90
5711;DHT22;61291;52.524;13.422;2023-02-08T04:02:18;-3.60;99.90
5711;DHT22;61291;52.524;13.422;2023-02-08T04:04:47;-3.50;99.90
5711;DHT22;61291;52.524;13.422;2023-02-08T04:07:19;-3.40;99.90
5711;DHT22;61291;52.524;13.422;2023-02-08T04:09:45;-3.50;99.90
5711;DHT22;61291;52.524;13.422;2023-02-08T04:12:10;-3.50;99.90
5711;DHT22;61291;52.524;13.422;2023-02-08T04:14:43;-3.60;99.90
5711;DHT22;61291;52.524;13.422;2023-02-08T04:17:08;-3.60;99.90
5711;DHT22;61291;52.524;13.422;2023-02-08T04:19:34;-3.60;99.90
5711;DHT22;61291;52.524;13.422;2023-02-08T04:22:00;-3.70;99.90
5711;DHT22;61291;52.524;13.422;2023-02-08T04:24:25;-3.60;99.90
5711;DHT22;61291;52.524;13.422;2023-02-08T04:26:50;-3.60;99.90
5711;DHT22;61291;52.524;13.422;2023-02-08T04:29:16;-3.60;99.90
5711;DHT22;61291;52.524;13.422;2023-02-08T04:31:42;-3.60;99.90
5711;DHT22;61291;52.524;13.422;2023-02-08T04:34:07;-3.50;99.90
5711;DHT22;61291;52.524;13.422;2023-02-08T04:36:33;-3.40;99.90
5711;DHT22;61291;52.524;13.422;2023-02-08T04:38:58;-3.40;99.90
5711;DHT22;61291;52.524;13.422;2023-02-08T04:41:24;-3.40;99.90
5711;DHT22;61291;52.524;13.422;2023-02-08T04:43:49;-3.40;99.90
5711;DHT22;61291;52.524;13.422;2023-02-08T04:46:15;-3.40;99.90
5711;DHT22;61291;52.524;13.422;2023-02-08T04:48:40;-3.40;99.90
5711;DHT22;61291;52.524;13.422;2023-02-08T04:51:06;-3.40;99.90
5711;DHT22;61291;52.524;13.422;2023-02-08T04:53:31;-3.40;99.90
5711;DHT22;61291;52.524;13.422;2023-02-08T04:55:57;-3.40;99.90
5711;DHT22;61291;52.524;13.422;2023-02-08T04:58:22;-3.40;99.90
5711;DHT22;61291;52.524;13.422;2023-02-08T05:00:48;-3.40;99.90
5711;DHT22;61291;52.524;13.422;2023-02-08T05:03:13;-3.40;99.90
5711;DHT22;61291;52.524;13.422;2023-02-08T05:05:39;-3.30;99.90
5711;DHT22;61291;52.524;13.422;2023-02-08T05:08:05;-3.20;99.90
5711;DHT22;61291;52.524;13.422;2023-02-08T05:10:31;-3.20;99.90
5711;DHT22;61291;52.524;13.422;2023-02-08T05:12:56;-3.30;99.90
5711;DHT22;61291;52.524;13.422;2023-02-08T05:15:22;-3.30;99.90
5711;DHT22;61291;52.524;13.422;2023-02-08T05:17:47;-3.30;99.90
5711;DHT22;61291;52.524;13.422;2023-02-08T05:20:13;-3.30;99.90
5711;DHT22;61291;52.524;13.422;2023-02-08T05:22:39;-3.40;99.90
5711;DHT22;61291;52.524;13.422;2023-02-08T05:25:05;-3.40;99.90
5711;DHT22;61291;52.524;13.422;2023-02-08T05:27:30;-3.50;99.90
5711;DHT22;61291;52.524;13.422;2023-02-08T05:29:57;-3.50;99.90
5711;DHT22;61291;52.524;13.422;2023-02-08T05:32:23;-3.60;99.90
5711;DHT22;61291;52.524;13.422;2023-02-08T05:34:48;-3.50;99.90
5711;DHT22;61291;52.524;13.422;2023-02-08T05:37:13;-3.50;99.90
5711;DHT22;61291;52.524;13.422;2023-02-08T05:39:39;-3.50;99.90
5711;DHT22;61291;52.524;13.422;2023-02-08T05:42:05;-3.50;99.90
5711;DHT22;61291;52.524;13.422;2023-02-08T05:44:31;-3.50;99.90
5711;DHT22;61291;52.524;13.422;2023-02-08T05:46:57;-3.50;99.90
5711;DHT22;61291;52.524;13.422;2023-02-08T05:49:23;-3.50;99.90
5711;DHT22;61291;52.524;13.422;2023-02-08T05:51:48;-3.40;99.90
5711;DHT22;61291;52.524;13.422;2023-02-08T05:54:15;-3.40;99.90
5711;DHT22;61291;52.524;13.422;2023-02-08T05:56:40;-3.40;99.90
5711;DHT22;61291;52.524;13.422;2023-02-08T05:59:06;-3.40;99.90
5711;DHT22;61291;52.524;13.422;2023-02-08T06:01:31;-3.40;99.90
5711;DHT22;61291;52.524;13.422;2023-02-08T06:03:58;-3.40;99.90
5711;DHT22;61291;52.524;13.422;2023-02-08T06:06:24;-3.50;99.90
5711;DHT22;61291;52.524;13.422;2023-02-08T06:08:49;-3.50;99.90
5711;DHT22;61291;52.524;13.422;2023-02-08T06:11:15;-3.40;99.90
5711;DHT22;61291;52.524;13.422;2023-02-08T06:13:41;-3.40;99.90
5711;DHT22;61291;52.524;13.422;2023-02-08T06:16:06;-3.40;99.90
5711;DHT22;61291;52.524;13.422;2023-02-08T06:18:32;-3.40;99.90
5711;DHT22;61291;52.524;13.422;2023-02-08T06:20:57;-3.30;99.90
5711;DHT22;61291;52.524;13.422;2023-02-08T06:23:23;-3.30;99.90
5711;DHT22;61291;52.524;13.422;2023-02-08T06:25:49;-3.20;99.90
5711;DHT22;61291;52.524;13.422;2023-02-08T06:28:15;-3.30;99.90
5711;DHT22;61291;52.524;13.422;2023-02-08T06:30:41;-3.30;99.90
5711;DHT22;61291;52.524;13.422;2023-02-08T06:33:06;-3.30;99.90
5711;DHT22;61291;52.524;13.422;2023-02-08T06:35:32;-3.30;99.90
5711;DHT22;61291;52.524;13.422;2023-02-08T06:37:57;-3.20;99.90
5711;DHT22;61291;52.524;13.422;2023-02-08T06:40:23;-3.20;99.90
5711;DHT22;61291;52.524;13.422;2023-02-08T06:42:49;-3.20;99.90
5711;DHT22;61291;52.524;13.422;2023-02-08T06:45:15;-3.20;99.90
5711;DHT22;61291;52.524;13.422;2023-02-08T06:47:41;-3.10;99.90
5711;DHT22;61291;52.524;13.422;2023-02-08T06:50:07;-3.10;99.90
5711;DHT22;61291;52.524;13.422;2023-02-08T06:52:32;-3.10;99.90
5711;DHT22;61291;52.524;13.422;2023-02-08T06:54:58;-3.10;99.90
5711;DHT22;61291;52.524;13.422;2023-02-08T06:57:23;-3.10;99.90
5711;DHT22;61291;52.524;13.422;2023-02-08T06:59:49;-3.00;99.90
5711;DHT22;61291;52.524;13.422;2023-02-08T07:02:18;-3.00;99.90
5711;DHT22;61291;52.524;13.422;2023-02-08T07:04:44;-2.90;99.90
5711;DHT22;61291;52.524;13.422;2023-02-08T07:07:15;-2.90;99.90
5711;DHT22;61291;52.524;13.422;2023-02-08T07:10:03;-2.80;99.90
5711;DHT22;61291;52.524;13.422;2023-02-08T07:12:35;-2.70;99.90
5711;DHT22;61291;52.524;13.422;2023-02-08T07:15:01;-2.60;99.90
5711;DHT22;61291;52.524;13.422;2023-02-08T07:17:27;-2.50;99.90
5711;DHT22;61291;52.524;13.422;2023-02-08T07:19:52;-2.50;99.90
5711;DHT22;61291;52.524;13.422;2023-02-08T07:22:18;-2.40;99.90
5711;DHT22;61291;52.524;13.422;2023-02-08T07:24:43;-2.30;99.90
5711;DHT22;61291;52.524;13.422;2023-02-08T07:27:10;-2.10;99.90
5711;DHT22;61291;52.524;13.422;2023-02-08T07:29:36;-2.10;99.90
5711;DHT22;61291;52.524;13.422;2023-02-08T07:32:03;-2.00;99.90
5711;DHT22;61291;52.524;13.422;2023-02-08T07:34:30;-2.00;99.90
5711;DHT22;61291;52.524;13.422;2023-02-08T07:36:56;-1.90;99.90
5711;DHT22;61291;52.524;13.422;2023-02-08T07:39:21;-1.90;99.90
5711;DHT22;61291;52.524;13.422;2023-02-08T07:41:47;-1.80;99.90
5711;DHT22;61291;52.524;13.422;2023-02-08T07:44:12;-1.80;99.90
5711;DHT22;61291;52.524;13.422;2023-02-08T07:46:39;-1.70;99.90
5711;DHT22;61291;52.524;13.422;2023-02-08T07:49:05;-1.70;99.90
5711;DHT22;61291;52.524;13.422;2023-02-08T07:51:30;-1.60;99.90
5711;DHT22;61291;52.524;13.422;2023-02-08T07:53:56;-1.50;99.90
5711;DHT22;61291;52.524;13.422;2023-02-08T07:56:21;-1.50;99.90
5711;DHT22;61291;52.524;13.422;2023-02-08T07:58:47;-1.40;99.90
5711;DHT22;61291;52.524;13.422;2023-02-08T08:01:13;-1.30;99.90
5711;DHT22;61291;52.524;13.422;2023-02-08T08:03:38;-1.30;99.90
5711;DHT22;61291;52.524;13.422;2023-02-08T08:06:04;-1.20;99.90
5711;DHT22;61291;52.524;13.422;2023-02-08T08:08:29;-1.10;99.90
5711;DHT22;61291;52.524;13.422;2023-02-08T08:10:55;-1.10;99.90
5711;DHT22;61291;52.524;13.422;2023-02-08T08:13:22;-1.00;99.90
5711;DHT22;61291;52.524;13.422;2023-02-08T08:15:47;-1.00;99.90
5711;DHT22;61291;52.524;13.422;2023-02-08T08:18:13;-0.90;99.90
5711;DHT22;61291;52.524;13.422;2023-02-08T08:20:38;-0.80;99.90
5711;DHT22;61291;52.524;13.422;2023-02-08T08:23:04;-0.80;99.90
5711;DHT22;61291;52.524;13.422;2023-02-08T08:25:30;-0.70;99.90
5711;DHT22;61291;52.524;13.422;2023-02-08T08:27:55;-0.60;99.90
5711;DHT22;61291;52.524;13.422;2023-02-08T08:30:21;-0.50;99.90
5711;DHT22;61291;52.524;13.422;2023-02-08T08:32:47;-0.40;99.90
5711;DHT22;61291;52.524;13.422;2023-02-08T08:35:12;-0.30;99.90
5711;DHT22;61291;52.524;13.422;2023-02-08T08:37:38;-0.20;99.90
5711;DHT22;61291;52.524;13.422;2023-02-08T08:40:05;-0.20;99.90
5711;DHT22;61291;52.524;13.422;2023-02-08T08:42:32;-0.10;99.90
5711;DHT22;61291;52.524;13.422;2023-02-08T08:44:57;0.00;99.90
5711;DHT22;61291;52.524;13.422;2023-02-08T08:47:23;0.10;99.90
5711;DHT22;61291;52.524;13.422;2023-02-08T08:49:48;0.20;99.90
5711;DHT22;61291;52.524;13.422;2023-02-08T08:52:14;0.20;99.90
5711;DHT22;61291;52.524;13.422;2023-02-08T08:54:40;0.30;99.90
5711;DHT22;61291;52.524;13.422;2023-02-08T08:57:05;0.30;99.90
5711;DHT22;61291;52.524;13.422;2023-02-08T08:59:31;0.40;99.90
5711;DHT22;61291;52.524;13.422;2023-02-08T09:01:57;0.40;99.90
5711;DHT22;61291;52.524;13.422;2023-02-08T09:04:23;0.50;99.90
5711;DHT22;61291;52.524;13.422;2023-02-08T09:06:49;0.50;99.90
5711;DHT22;61291;52.524;13.422;2023-02-08T09:09:15;0.60;99.90
5711;DHT22;61291;52.524;13.422;2023-02-08T09:11:41;0.60;99.90
5711;DHT22;61291;52.524;13.422;2023-02-08T09:14:06;0.70;99.90
5711;DHT22;61291;52.524;13.422;2023-02-08T09:16:32;0.70;99.90
5711;DHT22;61291;52.524;13.422;2023-02-08T09:19:06;0.80;99.90
5711;DHT22;61291;52.524;13.422;2023-02-08T09:21:32;0.80;99.90
5711;DHT22;61291;52.524;13.422;2023-02-08T09:23:59;0.80;99.90
5711;DHT22;61291;52.524;13.422;2023-02-08T09:26:24;0.90;99.90
5711;DHT22;61291;52.524;13.422;2023-02-08T09:28:51;0.90;99.90
5711;DHT22;61291;52.524;13.422;2023-02-08T09:31:21;1.00;99.90
5711;DHT22;61291;52.524;13.422;2023-02-08T09:33:49;1.00;99.90
5711;DHT22;61291;52.524;13.422;2023-02-08T09:36:15;1.10;99.90
5711;DHT22;61291;52.524;13.422;2023-02-08T09:38:41;1.20;99.90
5711;DHT22;61291;52.524;13.422;2023-02-08T09:41:31;1.20;99.90
5711;DHT22;61291;52.524;13.422;2023-02-08T09:44:31;1.20;99.90
5711;DHT22;61291;52.524;13.422;2023-02-08T09:47:06;1.30;99.90
5711;DHT22;61291;52.524;13.422;2023-02-08T09:49:45;1.40;99.90
5711;DHT22;61291;52.524;13.422;2023-02-08T09:52:21;1.40;99.90
5711;DHT22;61291;52.524;13.422;2023-02-08T09:54:55;1.50;99.90
5711;DHT22;61291;52.524;13.422;2023-02-08T09:57:25;1.50;99.90
5711;DHT22;61291;52.524;13.422;2023-02-08T10:00:44;1.60;99.90
5711;DHT22;61291;52.524;13.422;2023-02-08T10:03:35;1.70;99.90
5711;DHT22;61291;52.524;13.422;2023-02-08T10:06:06;1.60;99.90
5711;DHT22;61291;52.524;13.422;2023-02-08T10:08:33;1.70;99.90
5711;DHT22;61291;52.524;13.422;2023-02-08T10:11:19;1.80;99.90
5711;DHT22;61291;52.524;13.422;2023-02-08T10:14:06;1.80;99.90
5711;DHT22;61291;52.524;13.422;2023-02-08T10:16:53;1.90;99.90
5711;DHT22;61291;52.524;13.422;2023-02-08T10:19:35;2.00;99.90
5711;DHT22;61291;52.524;13.422;2023-02-08T10:22:21;2.00;99.90
5711;DHT22;61291;52.524;13.422;2023-02-08T10:25:18;2.00;99.90
5711;DHT22;61291;52.524;13.422;2023-02-08T10:28:21;2.10;99.90
5711;DHT22;61291;52.524;13.422;2023-02-08T10:31:17;2.20;99.90
5711;DHT22;61291;52.524;13.422;2023-02-08T10:33:59;2.20;99.90
5711;DHT22;61291;52.524;13.422;2023-02-08T10:36:29;2.30;99.90
5711;DHT22;61291;52.524;13.422;2023-02-08T10:38:56;2.30;99.90
5711;DHT22;61291;52.524;13.422;2023-02-08T10:41:27;2.30;99.90
5711;DHT22;61291;52.524;13.422;2023-02-08T10:44:18;2.40;99.90
5711;DHT22;61291;52.524;13.422;2023-02-08T10:46:51;2.40;99.90
5711;DHT22;61291;52.524;13.422;2023-02-08T10:49:37;2.40;99.90
5711;DHT22;61291;52.524;13.422;2023-02-08T10:52:05;2.40;99.90
5711;DHT22;61291;52.524;13.422;2023-02-08T10:54:32;2.50;99.90
5711;DHT22;61291;52.524;13.422;2023-02-08T10:57:00;2.50;99.90
5711;DHT22;61291;52.524;13.422;2023-02-08T10:59:32;2.50;99.90
5711;DHT22;61291;52.524;13.422;2023-02-08T11:01:58;2.60;99.90
5711;DHT22;61291;52.524;13.422;2023-02-08T11:04:23;2.60;99.90
5711;DHT22;61291;52.524;13.422;2023-02-08T11:06:50;2.70;99.90
5711;DHT22;61291;52.524;13.422;2023-02-08T11:09:21;2.70;99.90
5711;DHT22;61291;52.524;13.422;2023-02-08T11:11:48;2.80;99.90
5711;DHT22;61291;52.524;13.422;2023-02-08T11:16:50;2.80;99.90
5711;DHT22;61291;52.524;13.422;2023-02-08T11:19:37;2.80;99.90
5711;DHT22;61291;52.524;13.422;2023-02-08T11:22:21;2.90;99.90
5711;DHT22;61291;52.524;13.422;2023-02-08T11:25:02;3.00;99.90
5711;DHT22;61291;52.524;13.422;2023-02-08T11:27:34;3.00;99.90
5711;DHT22;61291;52.524;13.422;2023-02-08T11:30:21;3.00;99.90
5711;DHT22;61291;52.524;13.422;2023-02-08T11:32:48;3.10;99.90
5711;DHT22;61291;52.524;13.422;2023-02-08T11:35:33;3.10;99.90
5711;DHT22;61291;52.524;13.422;2023-02-08T11:37:59;3.10;99.90
5711;DHT22;61291;52.524;13.422;2023-02-08T11:40:32;3.20;99.90
5711;DHT22;61291;52.524;13.422;2023-02-08T11:42:59;3.20;99.90
5711;DHT22;61291;52.524;13.422;2023-02-08T11:45:28;3.20;99.90
5711;DHT22;61291;52.524;13.422;2023-02-08T11:47:55;3.20;99.90
5711;DHT22;61291;52.524;13.422;2023-02-08T11:50:26;3.30;99.90
5711;DHT22;61291;52.524;13.422;2023-02-08T11:52:57;3.30;99.90
5711;DHT22;61291;52.524;13.422;2023-02-08T11:55:25;3.30;99.90
5711;DHT22;61291;52.524;13.422;2023-02-08T11:58:01;3.30;99.90
5711;DHT22;61291;52.524;13.422;2023-02-08T12:00:30;3.40;99.90
5711;DHT22;61291;52.524;13.422;2023-02-08T12:02:59;3.40;99.90
5711;DHT22;61291;52.524;13.422;2023-02-08T12:08:47;3.50;99.90
5711;DHT22;61291;52.524;13.422;2023-02-08T12:14:11;3.50;99.90
5711;DHT22;61291;52.524;13.422;2023-02-08T12:16:50;3.50;99.90
5711;DHT22;61291;52.524;13.422;2023-02-08T12:22:27;3.50;99.90
5711;DHT22;61291;52.524;13.422;2023-02-08T12:27:49;3.50;99.90
5711;DHT22;61291;52.524;13.422;2023-02-08T12:30:28;3.60;99.90
5711;DHT22;61291;52.524;13.422;2023-02-08T12:36:11;3.60;99.90
5711;DHT22;61291;52.524;13.422;2023-02-08T12:39:04;3.60;99.90
5711;DHT22;61291;52.524;13.422;2023-02-08T12:42:00;3.70;99.90
5711;DHT22;61291;52.524;13.422;2023-02-08T12:50:52;3.70;99.90
5711;DHT22;61291;52.524;13.422;2023-02-08T12:53:26;3.70;99.90
5711;DHT22;61291;52.524;13.422;2023-02-08T12:55:58;3.70;99.90
5711;DHT22;61291;52.524;13.422;2023-02-08T12:58:47;3.70;99.90
5711;DHT22;61291;52.524;13.422;2023-02-08T13:01:19;3.70;99.90
5711;DHT22;61291;52.524;13.422;2023-02-08T13:03:54;3.70;99.90
5711;DHT22;61291;52.524;13.422;2023-02-08T13:06:24;3.70;99.90
5711;DHT22;61291;52.524;13.422;2023-02-08T13:09:00;3.70;99.90
5711;DHT22;61291;52.524;13.422;2023-02-08T13:11:35;3.70;99.90
5711;DHT22;61291;52.524;13.422;2023-02-08T13:14:13;3.80;99.90
5711;DHT22;61291;52.524;13.422;2023-02-08T13:16:45;3.80;99.90
5711;DHT22;61291;52.524;13.422;2023-02-08T13:19:56;3.80;99.90
5711;DHT22;61291;52.524;13.422;2023-02-08T13:22:20;3.80;99.90
5711;DHT22;61291;52.524;13.422;2023-02-08T13:24:46;3.80;99.90
5711;DHT22;61291;52.524;13.422;2023-02-08T13:27:15;3.80;99.90
5711;DHT22;61291;52.524;13.422;2023-02-08T13:29:44;3.80;99.90
5711;DHT22;61291;52.524;13.422;2023-02-08T13:34:56;3.80;99.90
5711;DHT22;61291;52.524;13.422;2023-02-08T13:37:28;3.70;99.90
5711;DHT22;61291;52.524;13.422;2023-02-08T13:40:19;3.70;99.90
5711;DHT22;61291;52.524;13.422;2023-02-08T13:42:55;3.70;99.90
5711;DHT22;61291;52.524;13.422;2023-02-08T13:45:28;3.70;99.90
5711;DHT22;61291;52.524;13.422;2023-02-08T13:47:58;3.70;99.90
5711;DHT22;61291;52.524;13.422;2023-02-08T13:53:00;3.70;99.90
5711;DHT22;61291;52.524;13.422;2023-02-08T14:03:34;3.80;99.90
5711;DHT22;61291;52.524;13.422;2023-02-08T14:06:18;3.80;99.90
5711;DHT22;61291;52.524;13.422;2023-02-08T14:14:28;3.70;99.90
5711;DHT22;61291;52.524;13.422;2023-02-08T14:19:31;3.60;99.90
5711;DHT22;61291;52.524;13.422;2023-02-08T14:22:16;3.60;99.90
5711;DHT22;61291;52.524;13.422;2023-02-08T14:24:44;3.60;99.90
5711;DHT22;61291;52.524;13.422;2023-02-08T14:30:04;3.50;99.90
5711;DHT22;61291;52.524;13.422;2023-02-08T14:32:33;3.50;99.90
5711;DHT22;61291;52.524;13.422;2023-02-08T14:37:33;3.40;99.90
5711;DHT22;61291;52.524;13.422;2023-02-08T14:43:01;3.30;99.90
5711;DHT22;61291;52.524;13.422;2023-02-08T14:45:28;3.40;99.90
5711;DHT22;61291;52.524;13.422;2023-02-08T14:48:13;3.40;99.90
5711;DHT22;61291;52.524;13.422;2023-02-08T14:50:55;3.40;99.90
5711;DHT22;61291;52.524;13.422;2023-02-08T14:53:42;3.30;99.90
5711;DHT22;61291;52.524;13.422;2023-02-08T14:58:36;3.30;99.90
5711;DHT22;61291;52.524;13.422;2023-02-08T15:01:11;3.30;99.90
5711;DHT22;61291;52.524;13.422;2023-02-08T15:03:39;3.10;99.90
5711;DHT22;61291;52.524;13.422;2023-02-08T15:06:47;3.00;99.90
5711;DHT22;61291;52.524;13.422;2023-02-08T15:09:28;3.50;99.90
5711;DHT22;61291;52.524;13.422;2023-02-08T15:12:24;3.90;99.90
5711;DHT22;61291;52.524;13.422;2023-02-08T15:14:53;4.10;99.90
5711;DHT22;61291;52.524;13.422;2023-02-08T15:17:29;3.80;99.90
5711;DHT22;61291;52.524;13.422;2023-02-08T15:19:55;3.50;99.90
5711;DHT22;61291;52.524;13.422;2023-02-08T15:24:55;3.00;99.90
5711;DHT22;61291;52.524;13.422;2023-02-08T15:27:26;2.80;99.90
5711;DHT22;61291;52.524;13.422;2023-02-08T15:29:52;2.60;99.90
5711;DHT22;61291;52.524;13.422;2023-02-08T15:32:20;2.40;99.90
5711;DHT22;61291;52.524;13.422;2023-02-08T15:34:56;2.20;99.90
5711;DHT22;61291;52.524;13.422;2023-02-08T15:37:23;2.10;99.90
5711;DHT22;61291;52.524;13.422;2023-02-08T15:39:54;1.90;99.90
5711;DHT22;61291;52.524;13.422;2023-02-08T15:42:22;1.80;99.90
5711;DHT22;61291;52.524;13.422;2023-02-08T15:44:49;1.70;99.90
5711;DHT22;61291;52.524;13.422;2023-02-08T15:47:25;1.60;99.90
5711;DHT22;61291;52.524;13.422;2023-02-08T15:49:52;1.50;99.90
5711;DHT22;61291;52.524;13.422;2023-02-08T15:52:24;1.30;99.90
5711;DHT22;61291;52.524;13.422;2023-02-08T15:54:51;1.20;99.90
5711;DHT22;61291;52.524;13.422;2023-02-08T15:57:30;1.10;99.90
5711;DHT22;61291;52.524;13.422;2023-02-08T15:59:57;1.00;99.90
5711;DHT22;61291;52.524;13.422;2023-02-08T16:02:30;1.00;99.90
5711;DHT22;61291;52.524;13.422;2023-02-08T16:04:58;0.90;99.90
5711;DHT22;61291;52.524;13.422;2023-02-08T16:07:42;0.80;99.90
5711;DHT22;61291;52.524;13.422;2023-02-08T16:10:40;0.70;99.90
5711;DHT22;61291;52.524;13.422;2023-02-08T16:13:17;0.70;99.90
5711;DHT22;61291;52.524;13.422;2023-02-08T16:15:47;0.70;99.90
5711;DHT22;61291;52.524;13.422;2023-02-08T16:18:39;0.70;99.90
5711;DHT22;61291;52.524;13.422;2023-02-08T16:21:19;0.60;99.90
5711;DHT22;61291;52.524;13.422;2023-02-08T16:23:49;0.60;99.90
5711;DHT22;61291;52.524;13.422;2023-02-08T16:29:35;0.40;99.90
5711;DHT22;61291;52.524;13.422;2023-02-08T16:34:33;0.00;99.90
5711;DHT22;61291;52.524;13.422;2023-02-08T16:37:01;0.00;99.90
5711;DHT22;61291;52.524;13.422;2023-02-08T16:39:52;0.00;99.90
5711;DHT22;61291;52.524;13.422;2023-02-08T16:45:15;-0.10;99.90
5711;DHT22;61291;52.524;13.422;2023-02-08T16:47:48;-0.20;99.90
5711;DHT22;61291;52.524;13.422;2023-02-08T16:50:23;-0.30;99.90
5711;DHT22;61291;52.524;13.422;2023-02-08T16:52:57;-0.30;99.90
5711;DHT22;61291;52.524;13.422;2023-02-08T16:55:26;-0.30;99.90
5711;DHT22;61291;52.524;13.422;2023-02-08T16:57:53;-0.30;99.90
5711;DHT22;61291;52.524;13.422;2023-02-08T17:00:22;-0.40;99.90
5711;DHT22;61291;52.524;13.422;2023-02-08T17:02:48;-0.40;99.90
5711;DHT22;61291;52.524;13.422;2023-02-08T17:05:14;-0.40;99.90
5711;DHT22;61291;52.524;13.422;2023-02-08T17:07:40;-0.40;99.90
5711;DHT22;61291;52.524;13.422;2023-02-08T17:10:07;-0.40;99.90
5711;DHT22;61291;52.524;13.422;2023-02-08T17:12:35;-0.50;99.90
5711;DHT22;61291;52.524;13.422;2023-02-08T17:15:01;-0.50;99.90
5711;DHT22;61291;52.524;13.422;2023-02-08T17:17:26;-0.40;99.90
5711;DHT22;61291;52.524;13.422;2023-02-08T17:19:52;-0.40;99.90
5711;DHT22;61291;52.524;13.422;2023-02-08T17:22:17;-0.40;99.90